createdAt,value
2023-03-24T00:01:08.990Z,97268.09
2023-03-24T00:06:13.765Z,97270.31
2023-03-24T00:11:21.461Z,97261.28
2023-03-24T00:16:26.491Z,97254.94
2023-03-24T00:21:32.615Z,97253.59
2023-03-24T00:26:40.102Z,97253.13
2023-03-24T00:31:45.995Z,97264.63
2023-03-24T00:36:53.350Z,97254.13
2023-03-24T00:42:03.402Z,97250.94
2023-03-24T00:47:07.289Z,97249.41
2023-03-24T00:52:11.978Z,97240.94
2023-03-24T00:57:21.762Z,97232.25
2023-03-24T01:02:27.443Z,97210.06
2023-03-24T01:07:33.571Z,97201.88
2023-03-24T01:12:38.069Z,97190.53
2023-03-24T01:17:41.060Z,97190.69
2023-03-24T01:22:46.403Z,97188.34
2023-03-24T01:27:52.270Z,97192.34
2023-03-24T01:32:55.476Z,97189.34
2023-03-24T01:37:58.810Z,97183.00
2023-03-24T01:43:03.297Z,97172.97
2023-03-24T01:48:13.042Z,97166.63
2023-03-24T01:53:17.905Z,97153.47
2023-03-24T01:58:24.248Z,97147.13
2023-03-24T02:03:42.016Z,97138.81
2023-03-24T02:08:49.956Z,97125.63
2023-03-24T02:13:54.465Z,97102.44
2023-03-24T02:19:38.011Z,97093.72
2023-03-24T02:25:10.630Z,97084.91
2023-03-24T02:31:10.397Z,97078.03
2023-03-24T02:36:49.684Z,97071.50
2023-03-24T02:42:03.349Z,97066.47
2023-03-24T02:47:13.198Z,97047.13
2023-03-24T02:52:21.930Z,97046.81
2023-03-24T02:57:34.159Z,97046.94
2023-03-24T03:03:07.525Z,97032.13
2023-03-24T03:08:17.331Z,97043.28
2023-03-24T03:13:28.532Z,97038.78
2023-03-24T03:18:35.030Z,97031.75
2023-03-24T03:23:42.520Z,97025.72
2023-03-24T03:28:57.790Z,97035.03
2023-03-24T03:34:08.324Z,97035.97
2023-03-24T03:39:15.910Z,97034.75
2023-03-24T03:44:21.199Z,97026.03
2023-03-24T03:49:25.671Z,97027.69
2023-03-24T03:54:32.393Z,97013.72
2023-03-24T03:59:39.912Z,96994.81
2023-03-24T04:05:25.949Z,96980.44
2023-03-24T04:10:53.551Z,96968.34
2023-03-24T04:16:06.968Z,96995.06
2023-03-24T04:21:51.747Z,97002.47
2023-03-24T04:27:00.716Z,97007.81
2023-03-24T04:32:19.510Z,96997.72
2023-03-24T04:37:26.881Z,97013.56
2023-03-24T04:42:38.121Z,97009.16
2023-03-24T04:47:47.681Z,97004.94
2023-03-24T04:53:13.465Z,97022.47
2023-03-24T04:58:18.643Z,97030.50
2023-03-24T05:03:23.552Z,97030.94
2023-03-24T05:08:33.716Z,97030.50
2023-03-24T05:13:36.947Z,97030.72
2023-03-24T05:18:50.948Z,97040.63
2023-03-24T05:23:55.244Z,97048.66
2023-03-24T05:29:06.627Z,97044.59
2023-03-24T05:34:11.954Z,97034.91
2023-03-24T05:39:29.416Z,97036.50
2023-03-24T05:44:39.114Z,97034.34
2023-03-24T05:49:52.749Z,97024.78
2023-03-24T05:54:55.732Z,97037.69
2023-03-24T06:00:15.093Z,97026.25
2023-03-24T06:05:45.896Z,97017.84
2023-03-24T06:10:53.428Z,97034.06
2023-03-24T06:16:01.625Z,97053.56
2023-03-24T06:21:18.500Z,97060.94
2023-03-24T06:26:22.843Z,97064.41
2023-03-24T06:31:30.986Z,97070.41
2023-03-24T06:36:42.368Z,97086.13
2023-03-24T06:41:47.436Z,97107.19
2023-03-24T06:46:51.262Z,97099.34
2023-03-24T06:51:57.797Z,97105.16
2023-03-24T06:57:03.270Z,97100.25
2023-03-24T07:02:29.090Z,97121.59
2023-03-24T07:13:08.670Z,97126.63
2023-03-24T07:18:14.151Z,97129.47
2023-03-24T07:23:21.796Z,97144.91
2023-03-24T07:28:39.047Z,97157.47
2023-03-24T07:33:43.164Z,97152.69
2023-03-24T07:38:48.606Z,97160.19
2023-03-24T07:43:59.362Z,97172.13
2023-03-24T07:49:18.234Z,97191.25
2023-03-24T07:54:27.291Z,97219.34
2023-03-24T07:59:31.272Z,97207.91
2023-03-24T08:05:14.268Z,97237.34
2023-03-24T08:10:32.174Z,97225.81
2023-03-24T08:15:36.034Z,97234.13
2023-03-24T08:20:39.201Z,97251.09
2023-03-24T08:25:43.358Z,97273.03
2023-03-24T08:30:46.637Z,97266.53
2023-03-24T08:35:54.190Z,97262.22
2023-03-24T08:41:02.246Z,97254.88
2023-03-24T08:46:13.273Z,97277.81
2023-03-24T08:51:18.240Z,97267.84
2023-03-24T08:56:24.287Z,97256.38
2023-03-24T09:01:28.800Z,97257.59
2023-03-24T09:06:32.700Z,97255.13
2023-03-24T09:11:38.661Z,97256.34
2023-03-24T09:16:44.051Z,97254.34
2023-03-24T09:21:51.620Z,97251.41
2023-03-24T09:26:56.868Z,97260.25
2023-03-24T09:32:03.583Z,97284.78
2023-03-24T09:37:09.182Z,97286.13
2023-03-24T09:42:19.781Z,97283.78
2023-03-24T09:47:31.077Z,97281.63
2023-03-24T09:52:38.242Z,97286.78
2023-03-24T09:57:46.537Z,97298.00
2023-03-24T10:02:51.917Z,97302.13
2023-03-24T10:08:01.274Z,97309.34
2023-03-24T10:13:08.803Z,97317.69
2023-03-24T10:18:28.757Z,97312.78
2023-03-24T10:23:40.990Z,97320.97
2023-03-24T10:28:52.344Z,97312.75
2023-03-24T10:34:04.203Z,97324.56
2023-03-24T10:44:17.293Z,97311.78
2023-03-24T10:49:22.139Z,97310.75
2023-03-24T10:54:27.574Z,97323.34
2023-03-24T10:59:37.308Z,97335.50
2023-03-24T11:04:45.648Z,97336.97
2023-03-24T11:09:59.816Z,97350.03
2023-03-24T11:15:21.249Z,97356.88
2023-03-24T11:20:31.937Z,97357.22
2023-03-24T11:25:40.894Z,97349.75
2023-03-24T11:30:51.885Z,97336.69
2023-03-24T11:36:05.172Z,97324.97
2023-03-24T11:41:20.309Z,97310.22
2023-03-24T11:46:26.717Z,97311.03
2023-03-24T11:51:36.450Z,97325.25
2023-03-24T11:56:43.713Z,97319.88
2023-03-24T12:01:56.512Z,97324.69
2023-03-24T12:07:18.413Z,97324.06
2023-03-24T12:12:33.580Z,97318.75
2023-03-24T12:17:42.493Z,97315.09
2023-03-24T12:22:53.337Z,97321.34
2023-03-24T12:28:08.371Z,97318.44
2023-03-24T12:33:31.237Z,97316.69
2023-03-24T12:38:45.631Z,97313.16
2023-03-24T12:43:59.023Z,97329.75
2023-03-24T12:49:24.464Z,97321.41
2023-03-24T12:54:37.502Z,97315.56
2023-03-24T12:59:45.034Z,97314.25
2023-03-24T13:04:53.695Z,97312.72
2023-03-24T13:10:04.365Z,97328.69
2023-03-24T13:15:17.368Z,97331.78
2023-03-24T13:20:26.593Z,97319.03
2023-03-24T13:25:38.719Z,97306.81
2023-03-24T13:30:44.489Z,97298.16
2023-03-24T13:36:10.698Z,97303.75
2023-03-24T13:41:20.525Z,97300.47
2023-03-24T13:46:23.458Z,97308.78
2023-03-24T13:51:31.504Z,97305.44
2023-03-24T13:56:38.258Z,97288.03
2023-03-24T14:01:44.610Z,97304.56
2023-03-24T14:06:51.555Z,97311.66
2023-03-24T14:12:18.584Z,97288.28
2023-03-24T14:17:24.264Z,97284.41
2023-03-24T14:22:33.567Z,97264.25
2023-03-24T14:27:42.640Z,97279.81
2023-03-24T14:32:48.066Z,97280.50
2023-03-24T14:37:56.887Z,97276.44
2023-03-24T14:43:25.783Z,97284.84
2023-03-24T14:48:45.456Z,97270.63
2023-03-24T14:53:50.618Z,97262.63
2023-03-24T14:58:57.778Z,97247.44
2023-03-24T15:04:06.599Z,97261.69
2023-03-24T15:09:11.717Z,97257.97
2023-03-24T15:14:23.622Z,97258.88
2023-03-24T15:19:31.898Z,97267.59
2023-03-24T15:24:38.359Z,97249.72
2023-03-24T15:29:44.445Z,97258.47
2023-03-24T15:34:54.076Z,97255.56
2023-03-24T15:40:09.071Z,97250.78
2023-03-24T15:45:24.588Z,97230.09
2023-03-24T15:50:35.490Z,97248.06
2023-03-24T15:55:44.782Z,97239.84
2023-03-24T16:00:48.842Z,97242.25
2023-03-24T16:05:52.684Z,97243.19
2023-03-24T16:11:01.689Z,97250.28
2023-03-24T16:16:18.060Z,97246.84
2023-03-24T16:21:22.942Z,97251.75
2023-03-24T16:26:29.101Z,97252.31
2023-03-24T16:31:33.665Z,97261.00
2023-03-24T16:36:36.712Z,97259.59
2023-03-24T16:41:40.825Z,97261.84
2023-03-24T16:46:46.564Z,97263.88
2023-03-24T16:51:53.596Z,97267.53
2023-03-24T16:56:57.702Z,97273.50
2023-03-24T17:02:05.466Z,97274.06
2023-03-24T17:07:09.946Z,97283.06
2023-03-24T17:12:15.687Z,97296.66
2023-03-24T17:17:19.818Z,97347.66
2023-03-24T17:22:25.435Z,97315.94
2023-03-24T17:27:35.628Z,97321.34
2023-03-24T17:32:38.894Z,97324.53
2023-03-24T17:37:45.123Z,97317.34
2023-03-24T17:42:49.523Z,97328.16
2023-03-24T17:47:59.314Z,97314.16
2023-03-24T17:53:02.713Z,97312.97
2023-03-24T17:58:07.308Z,97327.13
2023-03-24T18:03:10.073Z,97337.28
2023-03-24T18:08:13.968Z,97341.78
2023-03-24T18:13:19.187Z,97356.81
2023-03-24T18:18:22.072Z,97414.50
2023-03-24T18:23:25.720Z,97467.75
2023-03-24T18:28:30.098Z,97481.03
2023-03-24T18:33:33.945Z,97501.63
2023-03-24T18:38:37.876Z,97502.25
2023-03-24T18:43:42.223Z,97446.75
2023-03-24T18:48:46.581Z,97442.97
2023-03-24T18:53:50.672Z,97430.78
2023-03-24T18:58:55.223Z,97424.53
2023-03-24T19:03:58.180Z,97421.78
2023-03-24T19:09:02.768Z,97423.34
2023-03-24T19:14:07.421Z,97419.31
2023-03-24T19:19:12.302Z,97419.91
2023-03-24T19:24:20.287Z,97415.56
2023-03-24T19:29:24.845Z,97407.59
2023-03-24T19:34:29.292Z,97417.97
2023-03-24T19:39:32.220Z,97415.88
2023-03-24T19:44:36.464Z,97430.00
2023-03-24T19:49:41.292Z,97434.34
2023-03-24T19:54:44.062Z,97432.06
2023-03-24T19:59:49.335Z,97438.25
2023-03-24T20:04:55.090Z,97443.25
2023-03-24T20:09:58.567Z,97430.00
2023-03-24T20:15:02.813Z,97433.06
2023-03-24T20:20:07.237Z,97429.88
2023-03-24T20:25:11.861Z,97451.13
2023-03-24T20:30:20.164Z,97466.78
2023-03-24T20:35:23.362Z,97481.22
2023-03-24T20:40:26.334Z,97477.81
2023-03-24T20:45:30.964Z,97482.16
2023-03-24T20:50:34.103Z,97461.19
2023-03-24T20:55:36.916Z,97450.31
2023-03-24T21:00:46.175Z,97455.06
2023-03-24T21:05:49.744Z,97439.31
2023-03-24T21:10:56.137Z,97427.41
2023-03-24T21:16:01.136Z,97425.47
2023-03-24T21:21:04.687Z,97425.56
2023-03-24T21:26:09.982Z,97431.44
2023-03-24T21:31:19.367Z,97422.78
2023-03-24T21:36:23.358Z,97417.47
2023-03-24T21:41:26.312Z,97404.78
2023-03-24T21:46:32.206Z,97417.50
2023-03-24T21:51:36.809Z,97419.03
2023-03-24T21:56:43.059Z,97403.94
2023-03-24T22:01:47.608Z,97398.63
2023-03-24T22:06:50.537Z,97398.09
2023-03-24T22:11:57.197Z,97404.91
2023-03-24T22:17:02.004Z,97414.97
2023-03-24T22:22:05.275Z,97422.53
2023-03-24T22:27:08.986Z,97427.97
2023-03-24T22:32:14.318Z,97427.00
2023-03-24T22:37:17.362Z,97420.59
2023-03-24T22:42:20.852Z,97439.84
2023-03-24T22:47:25.065Z,97438.44
2023-03-24T22:52:28.270Z,97446.69
2023-03-24T22:57:31.104Z,97420.00
2023-03-24T23:02:36.497Z,97425.72
2023-03-24T23:07:42.084Z,97429.66
2023-03-24T23:12:46.007Z,97413.16
2023-03-24T23:17:52.221Z,97417.94
2023-03-24T23:22:57.706Z,97412.06
2023-03-24T23:28:02.758Z,97414.03
2023-03-24T23:33:14.656Z,97431.63
2023-03-24T23:38:18.764Z,97415.28
2023-03-24T23:43:21.617Z,97444.63
2023-03-24T23:48:27.669Z,97443.38
2023-03-24T23:53:31.399Z,97440.16
2023-03-24T23:58:37.171Z,97437.78
